パゴパゴ の空港の天気 - METARとTAF

パゴパゴ国際空港 ( NSTU / PPG ) - アメリカ領サモア パゴパゴ
飛行場実況気象(Metar)
観測時間06/15 21:51 SST (06/16 08:51 UTC)
風向・風速南東 8m/s
視程10km以上
天気現象
全天の4割程度の雲 雲底高度 490m
全天の8割程度の雲 雲底高度 1220m
全天の8割程度の雲 雲底高度 3050m
気温28.3℃
湿度87%
気圧1011.5hPa
METARNSTU 160851Z 13016KT 10SM SCT016 BKN040 BKN100 28/26 A2987 RMK SLP115 8/870 T02830259 52012
過去の天気等 Google飛行場航空写真 Wunderground天気予報

過去48時間のMETAR

飛行場予報(TAF)
発表時間: 6/15 18:40 SST (6/16 05:40 UTC)
予報対象時間: 15日19時 SST ~ 16日19時 SST
風向・風速東南東 8m/s
視程10km以上
天気現象周辺でしゅう雨
全天の4割程度の雲 雲底高度 460m
全天の8割程度の雲 雲底高度 1220m
NSTU 160540Z 1606/1706 12015KT P6SM VCSH SCT015 BKN040